sensor_id;sensor_type;location;lat;lon;timestamp;pressure;altitude;pressure_sealevel;temperature;humidity
27202;BME280;14717;46.924;15.474;2023-03-16T00:01:40;98097.50;;;0.76;68.67
27202;BME280;14717;46.924;15.474;2023-03-16T00:04:05;98099.97;;;0.77;68.70
27202;BME280;14717;46.924;15.474;2023-03-16T00:06:31;98110.53;;;0.67;68.56
27202;BME280;14717;46.924;15.474;2023-03-16T00:08:56;98109.78;;;0.60;69.87
27202;BME280;14717;46.924;15.474;2023-03-16T00:11:26;98106.31;;;0.53;68.90
27202;BME280;14717;46.924;15.474;2023-03-16T00:13:52;98105.91;;;0.50;69.17
27202;BME280;14717;46.924;15.474;2023-03-16T00:16:17;98115.91;;;0.32;70.56
27202;BME280;14717;46.924;15.474;2023-03-16T00:18:43;98105.66;;;0.34;70.13
27202;BME280;14717;46.924;15.474;2023-03-16T00:21:09;98113.38;;;0.37;69.89
27202;BME280;14717;46.924;15.474;2023-03-16T00:23:35;98116.38;;;0.29;71.47
27202;BME280;14717;46.924;15.474;2023-03-16T00:26:06;98108.69;;;0.43;70.32
27202;BME280;14717;46.924;15.474;2023-03-16T00:28:33;98113.31;;;0.61;69.93
27202;BME280;14717;46.924;15.474;2023-03-16T00:31:07;98113.84;;;0.51;69.33
27202;BME280;14717;46.924;15.474;2023-03-16T00:33:36;98114.84;;;0.33;70.27
27202;BME280;14717;46.924;15.474;2023-03-16T00:36:03;98108.09;;;0.42;70.19
27202;BME280;14717;46.924;15.474;2023-03-16T00:38:32;98112.63;;;0.47;70.05
27202;BME280;14717;46.924;15.474;2023-03-16T00:41:02;98100.66;;;0.55;69.79
27202;BME280;14717;46.924;15.474;2023-03-16T00:43:33;98111.63;;;0.18;70.18
27202;BME280;14717;46.924;15.474;2023-03-16T00:46:09;98117.13;;;0.11;70.81
27202;BME280;14717;46.924;15.474;2023-03-16T00:48:37;98117.22;;;0.05;70.42
27202;BME280;14717;46.924;15.474;2023-03-16T00:51:04;98115.66;;;-0.15;72.01
27202;BME280;14717;46.924;15.474;2023-03-16T00:53:34;98124.47;;;-0.20;72.27
27202;BME280;14717;46.924;15.474;2023-03-16T00:56:02;98124.28;;;-0.25;72.51
27202;BME280;14717;46.924;15.474;2023-03-16T00:58:29;98122.47;;;-0.31;74.20
27202;BME280;14717;46.924;15.474;2023-03-16T01:01:06;98122.91;;;-0.34;74.44
27202;BME280;14717;46.924;15.474;2023-03-16T01:03:33;98121.00;;;-0.33;75.41
27202;BME280;14717;46.924;15.474;2023-03-16T01:06:03;98130.16;;;0.03;74.17
27202;BME280;14717;46.924;15.474;2023-03-16T01:08:30;98131.13;;;-0.16;73.76
27202;BME280;14717;46.924;15.474;2023-03-16T01:11:01;98129.75;;;-0.01;73.18
27202;BME280;14717;46.924;15.474;2023-03-16T01:13:27;98128.84;;;0.12;73.42
27202;BME280;14717;46.924;15.474;2023-03-16T01:15:53;98125.22;;;0.18;72.46
27202;BME280;14717;46.924;15.474;2023-03-16T01:18:18;98129.09;;;0.04;73.13
27202;BME280;14717;46.924;15.474;2023-03-16T01:20:44;98124.00;;;0.14;72.98
27202;BME280;14717;46.924;15.474;2023-03-16T01:23:17;98123.69;;;0.28;73.03
27202;BME280;14717;46.924;15.474;2023-03-16T01:25:43;98126.19;;;0.30;73.69
27202;BME280;14717;46.924;15.474;2023-03-16T01:28:17;98120.97;;;0.04;74.83
27202;BME280;14717;46.924;15.474;2023-03-16T01:30:43;98129.09;;;0.04;74.29
27202;BME280;14717;46.924;15.474;2023-03-16T01:33:08;98133.53;;;-0.01;73.90
27202;BME280;14717;46.924;15.474;2023-03-16T01:35:33;98137.91;;;-0.01;73.75
27202;BME280;14717;46.924;15.474;2023-03-16T01:37:59;98126.66;;;-0.04;74.16
27202;BME280;14717;46.924;15.474;2023-03-16T01:40:24;98122.16;;;0.08;73.60
27202;BME280;14717;46.924;15.474;2023-03-16T01:43:02;98127.22;;;0.04;73.55
27202;BME280;14717;46.924;15.474;2023-03-16T01:48:37;98134.38;;;-0.01;73.88
27202;BME280;14717;46.924;15.474;2023-03-16T01:51:08;98129.53;;;0.01;74.30
27202;BME280;14717;46.924;15.474;2023-03-16T01:53:35;98125.09;;;0.06;73.84
27202;BME280;14717;46.924;15.474;2023-03-16T01:56:05;98134.38;;;-0.01;74.42
27202;BME280;14717;46.924;15.474;2023-03-16T01:58:32;98135.13;;;0.06;74.75
27202;BME280;14717;46.924;15.474;2023-03-16T02:00:58;98140.91;;;0.16;74.67
27202;BME280;14717;46.924;15.474;2023-03-16T02:03:24;98138.34;;;0.21;73.72
27202;BME280;14717;46.924;15.474;2023-03-16T02:06:05;98141.69;;;-0.01;74.27
27202;BME280;14717;46.924;15.474;2023-03-16T02:08:33;98145.19;;;0.05;74.02
27202;BME280;14717;46.924;15.474;2023-03-16T02:11:01;98151.34;;;0.19;74.36
27202;BME280;14717;46.924;15.474;2023-03-16T02:13:29;98151.59;;;-0.20;75.07
27202;BME280;14717;46.924;15.474;2023-03-16T02:15:58;98151.16;;;-0.17;75.51
27202;BME280;14717;46.924;15.474;2023-03-16T02:18:23;98138.50;;;-0.23;76.25
27202;BME280;14717;46.924;15.474;2023-03-16T02:20:56;98141.63;;;-0.26;77.13
27202;BME280;14717;46.924;15.474;2023-03-16T02:23:26;98137.84;;;-0.25;76.49
27202;BME280;14717;46.924;15.474;2023-03-16T02:26:09;98155.63;;;-0.29;76.84
27202;BME280;14717;46.924;15.474;2023-03-16T02:31:39;98154.94;;;-0.18;76.73
27202;BME280;14717;46.924;15.474;2023-03-16T02:34:06;98161.94;;;-0.04;75.99
27202;BME280;14717;46.924;15.474;2023-03-16T02:36:32;98164.53;;;-0.15;76.62
27202;BME280;14717;46.924;15.474;2023-03-16T02:38:58;98157.84;;;-0.13;76.53
27202;BME280;14717;46.924;15.474;2023-03-16T02:41:23;98159.56;;;0.06;75.86
27202;BME280;14717;46.924;15.474;2023-03-16T02:44:24;98165.59;;;0.08;75.38
27202;BME280;14717;46.924;15.474;2023-03-16T02:46:48;98162.38;;;0.24;75.59
27202;BME280;14717;46.924;15.474;2023-03-16T02:49:37;98161.50;;;-0.01;74.48
27202;BME280;14717;46.924;15.474;2023-03-16T02:52:07;98157.81;;;-0.06;75.02
27202;BME280;14717;46.924;15.474;2023-03-16T02:54:32;98168.84;;;-0.01;75.28
27202;BME280;14717;46.924;15.474;2023-03-16T02:56:58;98162.72;;;0.03;75.43
27202;BME280;14717;46.924;15.474;2023-03-16T02:59:23;98169.91;;;-0.09;74.84
27202;BME280;14717;46.924;15.474;2023-03-16T03:01:48;98170.50;;;-0.07;75.69
27202;BME280;14717;46.924;15.474;2023-03-16T03:04:14;98165.81;;;-0.18;75.13
27202;BME280;14717;46.924;15.474;2023-03-16T03:06:39;98167.94;;;-0.26;74.43
27202;BME280;14717;46.924;15.474;2023-03-16T03:09:06;98174.91;;;-0.43;76.27
27202;BME280;14717;46.924;15.474;2023-03-16T03:11:31;98175.44;;;-0.28;75.95
27202;BME280;14717;46.924;15.474;2023-03-16T03:13:57;98181.28;;;-0.25;75.98
27202;BME280;14717;46.924;15.474;2023-03-16T03:16:23;98182.59;;;-0.34;75.77
27202;BME280;14717;46.924;15.474;2023-03-16T03:18:49;98190.16;;;-0.42;75.92
27202;BME280;14717;46.924;15.474;2023-03-16T03:21:14;98199.72;;;-0.40;75.96
27202;BME280;14717;46.924;15.474;2023-03-16T03:23:40;98195.00;;;-0.20;75.94
27202;BME280;14717;46.924;15.474;2023-03-16T03:26:06;98201.13;;;-0.24;75.87
27202;BME280;14717;46.924;15.474;2023-03-16T03:28:31;98191.22;;;-0.49;76.46
27202;BME280;14717;46.924;15.474;2023-03-16T03:30:58;98196.88;;;-0.51;77.00
27202;BME280;14717;46.924;15.474;2023-03-16T03:33:23;98193.75;;;-0.54;77.06
27202;BME280;14717;46.924;15.474;2023-03-16T03:35:56;98201.47;;;-0.51;77.38
27202;BME280;14717;46.924;15.474;2023-03-16T03:38:22;98197.53;;;-0.55;77.38
27202;BME280;14717;46.924;15.474;2023-03-16T03:40:50;98205.22;;;-0.46;76.70
27202;BME280;14717;46.924;15.474;2023-03-16T03:43:15;98207.66;;;-0.38;77.25
27202;BME280;14717;46.924;15.474;2023-03-16T03:45:41;98213.97;;;-0.50;76.66
27202;BME280;14717;46.924;15.474;2023-03-16T03:48:06;98226.94;;;-0.59;78.01
27202;BME280;14717;46.924;15.474;2023-03-16T03:50:31;98213.97;;;-0.50;78.17
27202;BME280;14717;46.924;15.474;2023-03-16T03:52:57;98220.34;;;-0.32;77.92
27202;BME280;14717;46.924;15.474;2023-03-16T03:55:22;98228.31;;;-0.37;77.13
27202;BME280;14717;46.924;15.474;2023-03-16T03:57:48;98231.06;;;-0.43;77.53
27202;BME280;14717;46.924;15.474;2023-03-16T04:00:13;98224.59;;;-0.43;77.73
27202;BME280;14717;46.924;15.474;2023-03-16T04:02:39;98232.03;;;-0.32;78.08
27202;BME280;14717;46.924;15.474;2023-03-16T04:05:06;98238.94;;;-0.36;77.82
27202;BME280;14717;46.924;15.474;2023-03-16T04:07:31;98241.53;;;-0.53;78.19
27202;BME280;14717;46.924;15.474;2023-03-16T04:09:57;98241.06;;;-0.38;78.68
27202;BME280;14717;46.924;15.474;2023-03-16T04:12:22;98256.38;;;-0.62;77.99
27202;BME280;14717;46.924;15.474;2023-03-16T04:14:50;98253.72;;;-0.82;79.67
27202;BME280;14717;46.924;15.474;2023-03-16T04:17:16;98251.19;;;-0.70;80.18
27202;BME280;14717;46.924;15.474;2023-03-16T04:19:41;98249.31;;;-0.83;80.54
27202;BME280;14717;46.924;15.474;2023-03-16T04:22:07;98250.84;;;-0.99;80.99
27202;BME280;14717;46.924;15.474;2023-03-16T04:24:32;98253.97;;;-1.09;81.69
27202;BME280;14717;46.924;15.474;2023-03-16T04:26:59;98253.97;;;-1.09;81.70
27202;BME280;14717;46.924;15.474;2023-03-16T04:29:25;98253.34;;;-1.04;81.78
27202;BME280;14717;46.924;15.474;2023-03-16T04:31:51;98259.38;;;-1.02;80.96
27202;BME280;14717;46.924;15.474;2023-03-16T04:34:19;98259.59;;;-1.10;82.12
27202;BME280;14717;46.924;15.474;2023-03-16T04:36:52;98267.13;;;-1.25;81.93
27202;BME280;14717;46.924;15.474;2023-03-16T04:39:19;98269.41;;;-1.22;82.60
27202;BME280;14717;46.924;15.474;2023-03-16T04:41:44;98271.91;;;-1.21;82.81
27202;BME280;14717;46.924;15.474;2023-03-16T04:44:10;98265.88;;;-1.23;81.97
27202;BME280;14717;46.924;15.474;2023-03-16T04:46:35;98279.84;;;-1.26;82.95
27202;BME280;14717;46.924;15.474;2023-03-16T04:49:01;98272.78;;;-1.27;82.78
27202;BME280;14717;46.924;15.474;2023-03-16T04:51:27;98287.53;;;-1.29;83.00
27202;BME280;14717;46.924;15.474;2023-03-16T04:53:52;98298.38;;;-1.35;83.38
27202;BME280;14717;46.924;15.474;2023-03-16T04:56:18;98294.44;;;-1.39;83.12
27202;BME280;14717;46.924;15.474;2023-03-16T04:58:47;98298.38;;;-1.29;83.88
27202;BME280;14717;46.924;15.474;2023-03-16T05:01:14;98305.03;;;-1.06;82.29
27202;BME280;14717;46.924;15.474;2023-03-16T05:03:39;98297.94;;;-0.87;81.65
27202;BME280;14717;46.924;15.474;2023-03-16T05:06:05;98301.44;;;-0.81;81.90
27202;BME280;14717;46.924;15.474;2023-03-16T05:08:31;98300.44;;;-0.99;81.81
27202;BME280;14717;46.924;15.474;2023-03-16T05:10:57;98312.34;;;-1.00;81.53
27202;BME280;14717;46.924;15.474;2023-03-16T05:13:23;98307.94;;;-0.88;81.68
27202;BME280;14717;46.924;15.474;2023-03-16T05:15:49;98314.19;;;-0.87;81.48
27202;BME280;14717;46.924;15.474;2023-03-16T05:18:14;98309.63;;;-1.00;82.36
27202;BME280;14717;46.924;15.474;2023-03-16T05:20:39;98311.72;;;-1.02;82.49
27202;BME280;14717;46.924;15.474;2023-03-16T05:23:06;98311.31;;;-1.12;83.25
27202;BME280;14717;46.924;15.474;2023-03-16T05:25:32;98322.34;;;-1.20;82.95
27202;BME280;14717;46.924;15.474;2023-03-16T05:27:58;98309.63;;;-1.13;83.51
27202;BME280;14717;46.924;15.474;2023-03-16T05:30:23;98314.44;;;-1.21;83.95
27202;BME280;14717;46.924;15.474;2023-03-16T05:32:49;98318.38;;;-1.11;84.52
27202;BME280;14717;46.924;15.474;2023-03-16T05:35:15;98315.88;;;-0.99;85.19
27202;BME280;14717;46.924;15.474;2023-03-16T05:37:41;98326.72;;;-0.99;84.96
27202;BME280;14717;46.924;15.474;2023-03-16T05:40:09;98330.03;;;-1.04;84.96
27202;BME280;14717;46.924;15.474;2023-03-16T05:42:45;98325.03;;;-1.00;85.56
27202;BME280;14717;46.924;15.474;2023-03-16T05:45:12;98327.53;;;-0.99;84.86
27202;BME280;14717;46.924;15.474;2023-03-16T05:47:39;98323.59;;;-0.96;83.76
27202;BME280;14717;46.924;15.474;2023-03-16T05:50:05;98317.97;;;-0.88;83.98
27202;BME280;14717;46.924;15.474;2023-03-16T05:52:33;98326.69;;;-0.74;84.04
27202;BME280;14717;46.924;15.474;2023-03-16T05:54:59;98324.78;;;-0.60;83.58
27202;BME280;14717;46.924;15.474;2023-03-16T05:57:24;98331.41;;;-0.43;82.78
27202;BME280;14717;46.924;15.474;2023-03-16T05:59:50;98328.47;;;-0.29;82.75
27202;BME280;14717;46.924;15.474;2023-03-16T06:02:15;98330.31;;;-0.23;82.03
27202;BME280;14717;46.924;15.474;2023-03-16T06:04:40;98336.13;;;-0.20;81.67
27202;BME280;14717;46.924;15.474;2023-03-16T06:07:06;98341.09;;;-0.04;81.48
27202;BME280;14717;46.924;15.474;2023-03-16T06:09:31;98342.56;;;0.36;80.14
27202;BME280;14717;46.924;15.474;2023-03-16T06:11:56;98346.19;;;0.60;79.11
27202;BME280;14717;46.924;15.474;2023-03-16T06:14:22;98356.53;;;0.76;79.09
27202;BME280;14717;46.924;15.474;2023-03-16T06:16:48;98365.78;;;0.69;77.90
27202;BME280;14717;46.924;15.474;2023-03-16T06:19:14;98369.13;;;0.71;79.17
27202;BME280;14717;46.924;15.474;2023-03-16T06:21:39;98377.31;;;0.95;78.28
27202;BME280;14717;46.924;15.474;2023-03-16T06:24:05;98382.44;;;1.33;77.34
27202;BME280;14717;46.924;15.474;2023-03-16T06:26:33;98385.84;;;1.71;75.85
27202;BME280;14717;46.924;15.474;2023-03-16T06:28:58;98385.19;;;1.93;74.62
27202;BME280;14717;46.924;15.474;2023-03-16T06:31:24;98381.72;;;2.22;74.47
27202;BME280;14717;46.924;15.474;2023-03-16T06:33:50;98385.78;;;2.49;72.48
27202;BME280;14717;46.924;15.474;2023-03-16T06:36:15;98387.97;;;2.58;71.86
27202;BME280;14717;46.924;15.474;2023-03-16T06:38:41;98380.53;;;2.65;71.81
27202;BME280;14717;46.924;15.474;2023-03-16T06:41:06;98374.41;;;2.81;72.75
27202;BME280;14717;46.924;15.474;2023-03-16T06:43:31;98383.22;;;2.94;73.38
27202;BME280;14717;46.924;15.474;2023-03-16T06:45:57;98383.78;;;3.25;72.38
27202;BME280;14717;46.924;15.474;2023-03-16T06:48:23;98389.75;;;3.45;71.70
27202;BME280;14717;46.924;15.474;2023-03-16T06:50:48;98389.78;;;3.68;69.90
27202;BME280;14717;46.924;15.474;2023-03-16T06:53:13;98396.81;;;3.86;69.00
27202;BME280;14717;46.924;15.474;2023-03-16T06:55:39;98399.56;;;3.98;67.20
27202;BME280;14717;46.924;15.474;2023-03-16T06:58:06;98395.38;;;4.18;67.40
27202;BME280;14717;46.924;15.474;2023-03-16T07:00:31;98393.53;;;4.35;66.35
27202;BME280;14717;46.924;15.474;2023-03-16T07:02:58;98392.59;;;4.41;66.25
27202;BME280;14717;46.924;15.474;2023-03-16T07:05:23;98388.19;;;4.40;66.51
27202;BME280;14717;46.924;15.474;2023-03-16T07:07:49;98390.91;;;4.40;66.42
27202;BME280;14717;46.924;15.474;2023-03-16T07:10:15;98380.31;;;4.43;66.12
27202;BME280;14717;46.924;15.474;2023-03-16T07:12:42;98383.09;;;4.71;65.72
27202;BME280;14717;46.924;15.474;2023-03-16T07:15:08;98384.84;;;4.88;63.91
27202;BME280;14717;46.924;15.474;2023-03-16T07:17:33;98385.59;;;5.00;63.52
27202;BME280;14717;46.924;15.474;2023-03-16T07:19:59;98396.22;;;5.24;62.05
27202;BME280;14717;46.924;15.474;2023-03-16T07:22:24;98398.63;;;5.21;60.97
27202;BME280;14717;46.924;15.474;2023-03-16T07:24:50;98396.88;;;5.31;61.25
27202;BME280;14717;46.924;15.474;2023-03-16T07:27:22;98399.09;;;5.18;62.52
27202;BME280;14717;46.924;15.474;2023-03-16T07:29:48;98407.47;;;5.11;62.76
27202;BME280;14717;46.924;15.474;2023-03-16T07:32:13;98413.41;;;5.36;60.58
27202;BME280;14717;46.924;15.474;2023-03-16T07:34:39;98406.19;;;5.47;59.57
27202;BME280;14717;46.924;15.474;2023-03-16T07:37:06;98411.63;;;5.74;59.28
27202;BME280;14717;46.924;15.474;2023-03-16T07:39:33;98413.09;;;5.65;59.31
27202;BME280;14717;46.924;15.474;2023-03-16T07:41:58;98400.38;;;5.59;58.36
27202;BME280;14717;46.924;15.474;2023-03-16T07:44:23;98399.31;;;5.44;57.48
27202;BME280;14717;46.924;15.474;2023-03-16T07:46:49;98397.81;;;5.53;58.23
27202;BME280;14717;46.924;15.474;2023-03-16T07:49:15;98404.88;;;5.65;58.40
27202;BME280;14717;46.924;15.474;2023-03-16T07:51:41;98405.41;;;5.79;57.71
27202;BME280;14717;46.924;15.474;2023-03-16T07:54:06;98408.00;;;6.23;57.43
27202;BME280;14717;46.924;15.474;2023-03-16T07:56:31;98400.53;;;6.35;57.89
27202;BME280;14717;46.924;15.474;2023-03-16T07:58:57;98404.47;;;6.43;55.59
27202;BME280;14717;46.924;15.474;2023-03-16T08:01:22;98405.56;;;6.64;55.30
27202;BME280;14717;46.924;15.474;2023-03-16T08:03:48;98405.25;;;6.60;53.85
27202;BME280;14717;46.924;15.474;2023-03-16T08:06:13;98406.34;;;6.59;54.73
27202;BME280;14717;46.924;15.474;2023-03-16T08:08:39;98403.44;;;6.66;53.73
27202;BME280;14717;46.924;15.474;2023-03-16T08:11:04;98404.63;;;6.53;53.11
27202;BME280;14717;46.924;15.474;2023-03-16T08:13:30;98407.13;;;6.55;52.41
27202;BME280;14717;46.924;15.474;2023-03-16T08:15:55;98407.66;;;6.35;52.35
27202;BME280;14717;46.924;15.474;2023-03-16T08:18:23;98400.81;;;6.76;52.17
27202;BME280;14717;46.924;15.474;2023-03-16T08:20:49;98408.06;;;6.65;51.58
27202;BME280;14717;46.924;15.474;2023-03-16T08:23:15;98398.63;;;6.78;51.53
27202;BME280;14717;46.924;15.474;2023-03-16T08:25:40;98404.63;;;6.96;53.67
27202;BME280;14717;46.924;15.474;2023-03-16T08:28:06;98395.28;;;7.18;50.21
27202;BME280;14717;46.924;15.474;2023-03-16T08:30:33;98407.94;;;6.98;50.52
27202;BME280;14717;46.924;15.474;2023-03-16T08:32:59;98411.84;;;7.02;50.19
27202;BME280;14717;46.924;15.474;2023-03-16T08:35:25;98401.50;;;7.09;49.90
27202;BME280;14717;46.924;15.474;2023-03-16T08:37:54;98406.28;;;7.18;49.18
27202;BME280;14717;46.924;15.474;2023-03-16T08:40:19;98407.72;;;7.25;48.68
27202;BME280;14717;46.924;15.474;2023-03-16T08:42:47;98414.00;;;7.78;48.65
27202;BME280;14717;46.924;15.474;2023-03-16T08:45:14;98418.00;;;7.35;46.33
27202;BME280;14717;46.924;15.474;2023-03-16T08:47:41;98414.75;;;7.69;48.08
27202;BME280;14717;46.924;15.474;2023-03-16T08:50:08;98410.13;;;7.74;46.22
27202;BME280;14717;46.924;15.474;2023-03-16T08:52:34;98416.97;;;8.03;48.35
27202;BME280;14717;46.924;15.474;2023-03-16T08:55:06;98409.28;;;8.41;47.03
27202;BME280;14717;46.924;15.474;2023-03-16T08:57:33;98400.84;;;8.57;44.18
27202;BME280;14717;46.924;15.474;2023-03-16T08:59:59;98408.56;;;8.55;43.56
27202;BME280;14717;46.924;15.474;2023-03-16T09:02:24;98409.25;;;8.82;42.86
27202;BME280;14717;46.924;15.474;2023-03-16T09:04:50;98410.34;;;8.76;41.79
27202;BME280;14717;46.924;15.474;2023-03-16T09:07:17;98412.09;;;8.51;41.71
27202;BME280;14717;46.924;15.474;2023-03-16T09:09:43;98411.13;;;8.72;41.89
27202;BME280;14717;46.924;15.474;2023-03-16T09:12:09;98413.00;;;9.17;40.91
27202;BME280;14717;46.924;15.474;2023-03-16T09:14:35;98407.00;;;9.35;39.71
27202;BME280;14717;46.924;15.474;2023-03-16T09:17:02;98420.06;;;8.98;41.48
27202;BME280;14717;46.924;15.474;2023-03-16T09:19:28;98425.72;;;9.38;40.84
27202;BME280;14717;46.924;15.474;2023-03-16T09:21:53;98420.84;;;9.60;41.39
27202;BME280;14717;46.924;15.474;2023-03-16T09:24:18;98418.28;;;9.33;40.08
27202;BME280;14717;46.924;15.474;2023-03-16T09:26:44;98422.97;;;9.43;40.52
27202;BME280;14717;46.924;15.474;2023-03-16T09:29:09;98415.28;;;9.45;40.35
27202;BME280;14717;46.924;15.474;2023-03-16T09:31:35;98424.91;;;8.72;40.63
27202;BME280;14717;46.924;15.474;2023-03-16T09:34:01;98429.00;;;8.23;41.80
27202;BME280;14717;46.924;15.474;2023-03-16T09:36:26;98425.53;;;8.43;41.70
27202;BME280;14717;46.924;15.474;2023-03-16T09:38:52;98428.78;;;8.81;42.16
27202;BME280;14717;46.924;15.474;2023-03-16T09:44:39;98436.22;;;8.75;42.34
27202;BME280;14717;46.924;15.474;2023-03-16T09:47:10;98433.63;;;9.10;40.77
27202;BME280;14717;46.924;15.474;2023-03-16T09:49:42;98442.16;;;9.08;41.15
27202;BME280;14717;46.924;15.474;2023-03-16T09:52:43;98440.13;;;9.55;40.71
27202;BME280;14717;46.924;15.474;2023-03-16T09:55:36;98442.38;;;9.87;39.60
27202;BME280;14717;46.924;15.474;2023-03-16T09:58:09;98440.72;;;9.81;40.45
27202;BME280;14717;46.924;15.474;2023-03-16T10:03:25;98421.41;;;9.76;38.85
27202;BME280;14717;46.924;15.474;2023-03-16T10:05:59;98429.19;;;10.04;40.09
27202;BME280;14717;46.924;15.474;2023-03-16T10:08:39;98424.19;;;10.46;38.29
27202;BME280;14717;46.924;15.474;2023-03-16T10:11:24;98430.50;;;10.66;38.60
27202;BME280;14717;46.924;15.474;2023-03-16T10:13:54;98425.25;;;9.66;37.88
27202;BME280;14717;46.924;15.474;2023-03-16T10:16:26;98429.75;;;9.96;36.45
27202;BME280;14717;46.924;15.474;2023-03-16T10:21:51;98429.72;;;10.46;31.33
27202;BME280;14717;46.924;15.474;2023-03-16T10:24:26;98428.06;;;10.45;33.23
27202;BME280;14717;46.924;15.474;2023-03-16T10:26:59;98424.16;;;10.65;31.79
27202;BME280;14717;46.924;15.474;2023-03-16T10:29:34;98429.13;;;10.68;31.10
27202;BME280;14717;46.924;15.474;2023-03-16T10:32:10;98429.38;;;10.82;31.93
27202;BME280;14717;46.924;15.474;2023-03-16T10:34:36;98425.25;;;10.69;32.71
27202;BME280;14717;46.924;15.474;2023-03-16T10:37:03;98419.72;;;10.69;32.48
27202;BME280;14717;46.924;15.474;2023-03-16T10:39:35;98419.38;;;10.96;32.18
27202;BME280;14717;46.924;15.474;2023-03-16T10:42:01;98418.38;;;10.52;33.16
27202;BME280;14717;46.924;15.474;2023-03-16T10:44:27;98422.13;;;10.96;32.62
27202;BME280;14717;46.924;15.474;2023-03-16T10:47:05;98429.84;;;11.08;33.16
27202;BME280;14717;46.924;15.474;2023-03-16T10:49:36;98431.59;;;10.80;30.92
27202;BME280;14717;46.924;15.474;2023-03-16T10:52:30;98431.25;;;11.01;32.34
27202;BME280;14717;46.924;15.474;2023-03-16T10:55:08;98425.16;;;10.99;33.19
27202;BME280;14717;46.924;15.474;2023-03-16T10:57:39;98432.78;;;11.27;32.03
27202;BME280;14717;46.924;15.474;2023-03-16T11:00:07;98422.84;;;11.31;30.42
27202;BME280;14717;46.924;15.474;2023-03-16T11:02:38;98427.59;;;11.15;29.95
27202;BME280;14717;46.924;15.474;2023-03-16T11:05:18;98426.22;;;11.13;30.59
27202;BME280;14717;46.924;15.474;2023-03-16T11:10:39;98434.13;;;10.62;30.20
27202;BME280;14717;46.924;15.474;2023-03-16T11:13:14;98427.09;;;11.03;31.74
27202;BME280;14717;46.924;15.474;2023-03-16T11:15:54;98427.91;;;11.04;32.41
27202;BME280;14717;46.924;15.474;2023-03-16T11:18:36;98424.38;;;10.89;30.86
27202;BME280;14717;46.924;15.474;2023-03-16T11:21:11;98421.72;;;10.29;31.82
27202;BME280;14717;46.924;15.474;2023-03-16T11:23:46;98411.69;;;10.83;32.35
27202;BME280;14717;46.924;15.474;2023-03-16T11:26:20;98423.00;;;10.91;30.33
27202;BME280;14717;46.924;15.474;2023-03-16T11:28:50;98406.88;;;11.13;30.93
27202;BME280;14717;46.924;15.474;2023-03-16T11:31:41;98410.09;;;11.35;30.43
27202;BME280;14717;46.924;15.474;2023-03-16T11:34:17;98414.94;;;11.00;33.30
27202;BME280;14717;46.924;15.474;2023-03-16T11:37:11;98420.38;;;10.27;31.83
27202;BME280;14717;46.924;15.474;2023-03-16T11:40:00;98417.63;;;10.12;31.85
27202;BME280;14717;46.924;15.474;2023-03-16T11:42:37;98414.00;;;10.17;31.44
27202;BME280;14717;46.924;15.474;2023-03-16T11:56:33;98394.41;;;10.18;30.04
27202;BME280;14717;46.924;15.474;2023-03-16T12:02:08;98380.84;;;11.72;30.84
27202;BME280;14717;46.924;15.474;2023-03-16T12:04:57;98380.28;;;12.08;29.48
27202;BME280;14717;46.924;15.474;2023-03-16T12:10:57;98375.59;;;11.22;27.97
27202;BME280;14717;46.924;15.474;2023-03-16T12:16:09;98361.47;;;12.05;30.64
27202;BME280;14717;46.924;15.474;2023-03-16T12:18:44;98363.91;;;12.39;30.07
27202;BME280;14717;46.924;15.474;2023-03-16T12:21:19;98359.44;;;12.43;28.42
27202;BME280;14717;46.924;15.474;2023-03-16T12:23:54;98346.78;;;12.37;28.40
27202;BME280;14717;46.924;15.474;2023-03-16T12:26:24;98353.81;;;12.25;28.45
27202;BME280;14717;46.924;15.474;2023-03-16T12:28:53;98347.78;;;12.46;29.07
27202;BME280;14717;46.924;15.474;2023-03-16T12:31:34;98343.16;;;12.60;28.47
27202;BME280;14717;46.924;15.474;2023-03-16T12:34:18;98345.72;;;12.57;27.05
27202;BME280;14717;46.924;15.474;2023-03-16T12:37:08;98344.88;;;12.56;27.67
27202;BME280;14717;46.924;15.474;2023-03-16T12:48:19;98337.72;;;12.78;26.74
27202;BME280;14717;46.924;15.474;2023-03-16T12:51:09;98333.81;;;12.56;27.50
27202;BME280;14717;46.924;15.474;2023-03-16T12:56:08;98335.19;;;12.31;27.43
27202;BME280;14717;46.924;15.474;2023-03-16T12:58:35;98328.72;;;12.12;27.29
27202;BME280;14717;46.924;15.474;2023-03-16T13:01:07;98331.50;;;12.12;26.53
27202;BME280;14717;46.924;15.474;2023-03-16T13:03:34;98329.25;;;12.14;26.01
27202;BME280;14717;46.924;15.474;2023-03-16T13:06:00;98328.88;;;11.97;26.82
27202;BME280;14717;46.924;15.474;2023-03-16T13:08:41;98312.50;;;11.24;26.23
27202;BME280;14717;46.924;15.474;2023-03-16T13:11:11;98320.59;;;11.59;27.85
27202;BME280;14717;46.924;15.474;2023-03-16T13:16:34;98320.81;;;12.29;26.38
27202;BME280;14717;46.924;15.474;2023-03-16T13:19:16;98313.91;;;12.26;26.54
27202;BME280;14717;46.924;15.474;2023-03-16T13:21:59;98308.34;;;12.54;27.09
27202;BME280;14717;46.924;15.474;2023-03-16T13:24:33;98303.03;;;12.81;26.69
27202;BME280;14717;46.924;15.474;2023-03-16T13:27:26;98304.81;;;12.72;26.88
27202;BME280;14717;46.924;15.474;2023-03-16T13:29:57;98307.78;;;12.01;26.62
27202;BME280;14717;46.924;15.474;2023-03-16T13:32:25;98305.94;;;12.20;27.69
27202;BME280;14717;46.924;15.474;2023-03-16T13:34:57;98302.97;;;12.63;26.86
27202;BME280;14717;46.924;15.474;2023-03-16T13:37:23;98305.94;;;12.20;26.10
27202;BME280;14717;46.924;15.474;2023-03-16T13:39:57;98309.44;;;12.02;25.54
27202;BME280;14717;46.924;15.474;2023-03-16T13:42:28;98305.06;;;11.96;25.71
27202;BME280;14717;46.924;15.474;2023-03-16T13:44:55;98298.63;;;12.29;25.84
27202;BME280;14717;46.924;15.474;2023-03-16T13:47:21;98305.06;;;12.24;25.16
27202;BME280;14717;46.924;15.474;2023-03-16T13:49:47;98293.88;;;12.06;25.41
27202;BME280;14717;46.924;15.474;2023-03-16T13:52:29;98286.63;;;11.53;26.96
27202;BME280;14717;46.924;15.474;2023-03-16T13:55:02;98297.69;;;11.87;26.43
27202;BME280;14717;46.924;15.474;2023-03-16T13:57:28;98293.53;;;12.12;26.00